Time;durP1;ratioP1;P1;durP2;ratioP2;P2;SDS_P1;SDS_P2;PMS_P1;PMS_P2;Temp;Humidity;BMP_temperature;BMP_pressure;BME280_temperature;BME280_humidity;BME280_pressure;Samples;Min_cycle;Max_cycle;Signal;HPM_P1;HPM_P2
2022/02/27 00:00:10;;;;;;;24.25;12.13;;;1.10;99.90;;;;;;5131761;27;20022;-52
2022/02/27 00:02:36;;;;;;;21.75;10.52;;;1.10;99.90;;;;;;5134189;27;20055;-52
2022/02/27 00:05:01;;;;;;;24.45;11.27;;;1.10;99.90;;;;;;5130428;27;20054;-53
2022/02/27 00:07:27;;;;;;;23.58;11.68;;;1.00;99.90;;;;;;5118408;27;20039;-51
2022/02/27 00:09:52;;;;;;;25.20;12.60;;;1.10;99.90;;;;;;5110252;28;20515;-54
2022/02/27 00:12:18;;;;;;;24.08;12.30;;;1.10;99.90;;;;;;5125080;27;20293;-54
2022/02/27 00:14:43;;;;;;;24.88;11.23;;;1.00;99.90;;;;;;5134177;27;20027;-54
2022/02/27 00:17:09;;;;;;;22.52;10.88;;;1.00;99.90;;;;;;5150889;27;20023;-54
2022/02/27 00:19:34;;;;;;;23.27;11.43;;;1.00;99.90;;;;;;5133650;27;20019;-54
2022/02/27 00:22:00;;;;;;;18.63;10.23;;;0.90;99.90;;;;;;5148478;27;20109;-51
2022/02/27 00:24:25;;;;;;;22.58;10.73;;;0.90;99.90;;;;;;5150850;27;20031;-52
2022/02/27 00:26:51;;;;;;;26.75;10.23;;;0.90;99.90;;;;;;5150545;27;20031;-51
2022/02/27 00:29:16;;;;;;;19.73;10.23;;;0.80;99.90;;;;;;5137598;27;20062;-51
2022/02/27 00:31:42;;;;;;;18.75;9.77;;;0.80;99.90;;;;;;5137090;27;20024;-52
2022/02/27 00:34:08;;;;;;;16.27;10.07;;;0.90;99.90;;;;;;5108902;28;20024;-52
2022/02/27 00:36:33;;;;;;;24.83;11.30;;;0.80;99.90;;;;;;5109588;28;20039;-51
2022/02/27 00:38:59;;;;;;;19.15;10.80;;;0.80;99.90;;;;;;5109338;28;20480;-51
2022/02/27 00:41:24;;;;;;;25.23;11.73;;;0.80;99.90;;;;;;5123634;27;20030;-52
2022/02/27 00:43:50;;;;;;;24.40;12.18;;;0.80;99.90;;;;;;5142161;27;20026;-52
2022/02/27 00:46:15;;;;;;;26.67;11.07;;;0.80;99.90;;;;;;5150515;27;20048;-51
2022/02/27 00:48:41;;;;;;;21.27;11.43;;;0.80;99.90;;;;;;5150201;27;20054;-52
2022/02/27 00:51:06;;;;;;;26.90;11.98;;;0.70;99.90;;;;;;5133960;27;20084;-50
2022/02/27 00:53:32;;;;;;;26.52;11.63;;;0.70;99.90;;;;;;5118158;27;20030;-52
2022/02/27 00:55:58;;;;;;;23.95;10.00;;;0.70;99.90;;;;;;5109754;28;20088;-51
2022/02/27 00:58:23;;;;;;;29.35;10.63;;;0.80;99.90;;;;;;5108457;28;20012;-49
2022/02/27 01:00:49;;;;;;;19.50;10.70;;;0.70;99.90;;;;;;5141267;27;20038;-52
2022/02/27 01:03:14;;;;;;;23.27;11.38;;;0.70;99.90;;;;;;5125226;27;20036;-51
2022/02/27 01:05:40;;;;;;;20.75;11.60;;;0.80;99.90;;;;;;5133744;27;20023;-51
2022/02/27 01:08:05;;;;;;;24.45;11.55;;;0.70;99.90;;;;;;5129997;27;20027;-52
2022/02/27 01:10:32;;;;;;;25.02;12.18;;;0.70;99.90;;;;;;5127757;27;20031;-51
2022/02/27 01:12:57;;;;;;;21.60;11.68;;;0.70;99.90;;;;;;5137076;27;20387;-48
2022/02/27 01:15:23;;;;;;;22.83;10.65;;;0.70;99.90;;;;;;5128122;28;20110;-53
2022/02/27 01:17:48;;;;;;;21.55;10.77;;;0.60;99.90;;;;;;5130531;27;20114;-53
2022/02/27 01:20:14;;;;;;;31.13;11.43;;;0.70;99.90;;;;;;5128985;27;20032;-53
2022/02/27 01:22:40;;;;;;;25.50;11.20;;;0.60;99.90;;;;;;5111842;28;20098;-52
2022/02/27 01:25:07;;;;;;;22.77;11.27;;;0.60;99.90;;;;;;5113952;27;20388;-53
2022/02/27 01:27:33;;;;;;;20.27;11.02;;;0.60;99.90;;;;;;5140372;27;20491;-52
2022/02/27 01:29:59;;;;;;;22.95;10.85;;;0.60;99.90;;;;;;5145620;27;20041;-53
2022/02/27 01:32:24;;;;;;;28.52;10.48;;;0.60;99.90;;;;;;5107825;28;20132;-52
2022/02/27 01:34:50;;;;;;;31.85;11.73;;;0.60;99.90;;;;;;5108817;28;20453;-52
2022/02/27 01:37:19;;;;;;;25.63;10.27;;;0.60;99.90;;;;;;5124299;27;20059;-52
2022/02/27 01:39:44;;;;;;;24.58;12.15;;;0.60;99.90;;;;;;5127864;28;20031;-53
2022/02/27 01:42:13;;;;;;;23.25;10.13;;;0.60;99.90;;;;;;5122302;27;20043;-53
2022/02/27 01:44:39;;;;;;;22.98;11.63;;;0.50;99.90;;;;;;5127950;28;20475;-53
2022/02/27 01:47:07;;;;;;;23.17;11.90;;;0.60;99.90;;;;;;5124675;27;20037;-52
2022/02/27 01:49:34;;;;;;;22.48;11.25;;;0.50;99.90;;;;;;5114544;27;20020;-53
2022/02/27 01:52:00;;;;;;;25.80;12.05;;;0.50;99.90;;;;;;5115687;27;20019;-53
2022/02/27 01:54:25;;;;;;;22.95;10.18;;;0.50;99.90;;;;;;5112526;28;20383;-52
2022/02/27 01:56:52;;;;;;;27.23;10.70;;;0.50;99.90;;;;;;5137228;27;20098;-53
2022/02/27 01:59:18;;;;;;;25.00;11.35;;;0.50;99.90;;;;;;5138310;27;20023;-52
2022/02/27 02:01:43;;;;;;;20.17;10.75;;;0.50;99.90;;;;;;5136388;27;20031;-52
2022/02/27 02:04:09;;;;;;;22.00;10.55;;;0.40;99.90;;;;;;5132991;27;20478;-53
2022/02/27 02:06:35;;;;;;;21.73;9.98;;;0.40;99.90;;;;;;5122059;27;20064;-53
2022/02/27 02:09:03;;;;;;;19.92;10.07;;;0.40;99.90;;;;;;5112361;28;20406;-53
2022/02/27 02:11:29;;;;;;;20.30;10.10;;;0.40;99.90;;;;;;5123920;27;20252;-54
2022/02/27 02:13:55;;;;;;;19.25;10.73;;;0.40;99.90;;;;;;5148617;27;20459;-54
2022/02/27 02:16:21;;;;;;;23.92;11.88;;;0.40;99.90;;;;;;5137675;27;20012;-54
2022/02/27 02:18:46;;;;;;;20.15;11.05;;;0.40;99.90;;;;;;5135546;27;20046;-54
2022/02/27 02:21:12;;;;;;;19.88;10.13;;;0.30;99.90;;;;;;5132711;27;20023;-54
2022/02/27 02:23:37;;;;;;;28.73;10.95;;;0.30;99.90;;;;;;5134632;27;20026;-55
2022/02/27 02:26:04;;;;;;;21.05;10.73;;;0.30;99.90;;;;;;5139647;27;20027;-49
2022/02/27 02:28:30;;;;;;;18.58;9.70;;;0.30;99.90;;;;;;5121413;27;20034;-51
2022/02/27 02:30:56;;;;;;;31.33;10.40;;;0.30;99.90;;;;;;5139960;27;20442;-54
2022/02/27 02:33:39;;;;;;;18.70;10.73;;;0.20;99.90;;;;;;5131618;27;20023;-54
2022/02/27 02:36:06;;;;;;;21.35;10.35;;;0.20;99.90;;;;;;5132250;27;20023;-52
2022/02/27 02:38:31;;;;;;;23.15;11.25;;;0.20;99.90;;;;;;5131116;27;20584;-52
2022/02/27 02:40:57;;;;;;;18.50;10.63;;;0.20;99.90;;;;;;5129797;27;20039;-54
2022/02/27 02:43:23;;;;;;;21.75;10.98;;;0.20;99.90;;;;;;5131677;27;20027;-53
2022/02/27 02:45:50;;;;;;;24.20;10.90;;;0.20;99.90;;;;;;5131794;27;20011;-53
2022/02/27 02:48:17;;;;;;;22.10;10.35;;;0.10;99.90;;;;;;5128798;27;20372;-53
2022/02/27 02:50:42;;;;;;;21.80;10.50;;;0.10;99.90;;;;;;5136145;27;20103;-53
2022/02/27 02:53:08;;;;;;;20.58;10.68;;;0.10;99.90;;;;;;5151965;27;20102;-53
2022/02/27 02:55:33;;;;;;;21.77;10.35;;;0.00;99.90;;;;;;5146799;27;20035;-53
2022/02/27 02:57:59;;;;;;;23.27;11.00;;;0.00;99.90;;;;;;5124161;27;20031;-53
2022/02/27 03:00:24;;;;;;;20.45;10.38;;;0.00;99.90;;;;;;5134070;27;20102;-51
2022/02/27 03:02:50;;;;;;;19.75;10.20;;;0.00;99.90;;;;;;5133918;27;20110;-49
2022/02/27 03:05:16;;;;;;;17.02;10.23;;;0.00;99.90;;;;;;5134835;27;20020;-51
2022/02/27 03:07:41;;;;;;;21.55;10.32;;;0.00;99.90;;;;;;5134275;27;20103;-51
2022/02/27 03:10:08;;;;;;;21.90;9.07;;;0.00;99.90;;;;;;5125140;27;20054;-51
2022/02/27 03:12:35;;;;;;;17.52;10.02;;;0.00;99.90;;;;;;5128083;27;20031;-50
2022/02/27 03:15:00;;;;;;;22.38;10.35;;;0.00;99.90;;;;;;5140067;27;20126;-52
2022/02/27 03:17:26;;;;;;;23.13;10.52;;;0.00;99.90;;;;;;5143372;27;20110;-50
2022/02/27 03:19:52;;;;;;;17.90;9.32;;;-0.10;99.90;;;;;;5129145;27;20015;-52
2022/02/27 03:22:17;;;;;;;18.67;9.60;;;-0.10;99.90;;;;;;5147326;27;20031;-53
2022/02/27 03:24:43;;;;;;;29.20;11.65;;;-0.10;99.90;;;;;;5152136;27;20022;-49
2022/02/27 03:27:08;;;;;;;27.25;10.88;;;-0.10;99.90;;;;;;5133591;27;20041;-53
2022/02/27 03:29:34;;;;;;;20.35;10.65;;;-0.10;99.90;;;;;;5142398;27;20038;-51
2022/02/27 03:32:00;;;;;;;29.27;10.93;;;-0.10;99.90;;;;;;5126555;27;20035;-50
2022/02/27 03:34:25;;;;;;;16.75;9.30;;;-0.10;99.90;;;;;;5131143;27;20106;-50
2022/02/27 03:36:51;;;;;;;20.00;9.75;;;-0.10;99.90;;;;;;5130294;27;20532;-53
2022/02/27 03:39:16;;;;;;;20.40;10.15;;;-0.10;99.90;;;;;;5111646;27;20128;-53
2022/02/27 03:41:42;;;;;;;19.92;9.07;;;-0.10;99.90;;;;;;5122468;27;20016;-54
2022/02/27 03:44:07;;;;;;;21.95;10.00;;;-0.10;99.90;;;;;;5119292;27;20132;-53
2022/02/27 03:46:34;;;;;;;22.88;9.98;;;-0.10;99.90;;;;;;5119307;27;20392;-53
2022/02/27 03:49:04;;;;;;;23.13;9.73;;;-0.10;99.90;;;;;;5119556;27;20037;-52
2022/02/27 03:51:35;;;;;;;20.75;9.07;;;0.00;99.90;;;;;;5124146;27;20031;-54
2022/02/27 03:54:02;;;;;;;19.38;9.25;;;-0.10;99.90;;;;;;5113135;27;20072;-53
2022/02/27 03:56:28;;;;;;;18.75;8.63;;;0.00;99.90;;;;;;5110673;27;20032;-54
2022/02/27 03:58:53;;;;;;;23.08;9.52;;;0.00;99.90;;;;;;5116611;27;20047;-54
2022/02/27 04:01:19;;;;;;;20.70;9.05;;;0.00;99.90;;;;;;5121638;27;20102;-53
2022/02/27 04:03:44;;;;;;;26.40;9.88;;;0.00;99.90;;;;;;5108947;27;20035;-52
2022/02/27 04:06:11;;;;;;;23.00;9.25;;;0.00;99.90;;;;;;5145184;27;20026;-52
2022/02/27 04:08:37;;;;;;;14.80;8.82;;;0.00;99.90;;;;;;5145897;27;20022;-51
2022/02/27 04:11:03;;;;;;;20.00;10.77;;;0.00;99.90;;;;;;5140899;27;20189;-52
2022/02/27 04:13:28;;;;;;;15.65;8.95;;;0.00;99.90;;;;;;5141658;27;20038;-52
2022/02/27 04:15:54;;;;;;;21.73;11.80;;;0.00;99.90;;;;;;5125797;27;20043;-52
2022/02/27 04:18:19;;;;;;;16.70;9.75;;;-0.10;99.90;;;;;;5117359;27;20050;-52
2022/02/27 04:20:45;;;;;;;18.58;10.35;;;0.00;99.90;;;;;;5141610;27;20412;-52
2022/02/27 04:23:10;;;;;;;14.18;7.95;;;-0.10;99.90;;;;;;5148957;27;20601;-52
2022/02/27 04:25:36;;;;;;;16.70;9.23;;;-0.10;99.90;;;;;;5141113;27;20039;-52
2022/02/27 04:28:01;;;;;;;22.65;9.55;;;-0.10;99.90;;;;;;5148379;27;20110;-52
2022/02/27 04:30:27;;;;;;;18.17;9.85;;;-0.20;99.90;;;;;;5150143;27;20054;-51
2022/02/27 04:32:52;;;;;;;21.15;9.88;;;-0.10;99.90;;;;;;5149442;27;20023;-52
2022/02/27 04:35:18;;;;;;;18.83;11.57;;;-0.10;99.90;;;;;;5146948;27;20077;-52
2022/02/27 04:37:44;;;;;;;21.42;10.32;;;-0.10;99.90;;;;;;5139734;27;20195;-50
2022/02/27 04:40:11;;;;;;;17.05;9.43;;;-0.20;99.90;;;;;;5142655;27;20027;-52
2022/02/27 04:42:37;;;;;;;20.70;9.48;;;-0.20;99.90;;;;;;5134774;27;20068;-52
2022/02/27 04:45:03;;;;;;;22.75;9.68;;;-0.20;99.90;;;;;;5140718;27;20031;-53
2022/02/27 04:47:28;;;;;;;15.77;9.13;;;-0.20;99.90;;;;;;5148501;27;20033;-53
2022/02/27 04:49:54;;;;;;;17.30;9.93;;;-0.30;99.90;;;;;;5143996;27;20088;-53
2022/02/27 04:52:19;;;;;;;22.10;10.63;;;-0.30;99.90;;;;;;5126457;27;20031;-53
2022/02/27 04:54:45;;;;;;;26.50;12.02;;;-0.30;99.90;;;;;;5108438;28;20028;-51
2022/02/27 04:57:11;;;;;;;16.08;9.07;;;-0.30;99.90;;;;;;5121712;27;20273;-49
2022/02/27 04:59:37;;;;;;;22.67;10.10;;;-0.30;99.90;;;;;;5117829;27;20150;-52
2022/02/27 05:02:03;;;;;;;20.02;9.98;;;-0.30;99.90;;;;;;5121859;27;20023;-51
2022/02/27 05:04:29;;;;;;;21.95;10.00;;;-0.30;99.90;;;;;;5128945;27;20016;-49
2022/02/27 05:06:54;;;;;;;20.60;9.85;;;-0.40;99.90;;;;;;5136711;27;20113;-53
2022/02/27 05:09:20;;;;;;;22.02;9.73;;;-0.30;99.90;;;;;;5148600;27;20038;-56
2022/02/27 05:11:46;;;;;;;17.95;9.52;;;-0.30;99.90;;;;;;5116148;27;20497;-50
2022/02/27 05:14:13;;;;;;;21.58;9.73;;;-0.30;99.90;;;;;;5137109;27;20034;-53
2022/02/27 05:16:40;;;;;;;18.55;10.07;;;-0.40;99.90;;;;;;5126107;28;20046;-50
2022/02/27 05:19:05;;;;;;;20.10;9.65;;;-0.40;99.90;;;;;;5137425;27;20424;-52
2022/02/27 05:21:31;;;;;;;21.42;10.60;;;-0.40;99.90;;;;;;5113583;28;20024;-51
2022/02/27 05:23:56;;;;;;;28.27;10.30;;;-0.50;99.90;;;;;;5135245;27;20047;-52
2022/02/27 05:26:22;;;;;;;21.42;10.40;;;-0.50;99.90;;;;;;5149420;27;20023;-51
2022/02/27 05:28:47;;;;;;;20.48;10.35;;;-0.50;99.90;;;;;;5112103;27;20024;-51
2022/02/27 05:31:13;;;;;;;22.20;9.40;;;-0.50;99.90;;;;;;5148529;27;20034;-53
2022/02/27 05:33:40;;;;;;;22.50;10.07;;;-0.50;99.90;;;;;;5152712;27;20048;-52
2022/02/27 05:36:06;;;;;;;15.10;9.35;;;-0.50;99.90;;;;;;5148657;27;20015;-53
2022/02/27 05:38:32;;;;;;;18.17;9.48;;;-0.50;99.90;;;;;;5128613;27;20061;-53
2022/02/27 05:40:57;;;;;;;21.58;10.68;;;-0.60;99.90;;;;;;5133152;27;20016;-48
2022/02/27 05:43:23;;;;;;;18.67;10.00;;;-0.60;99.90;;;;;;5152637;27;20038;-53
2022/02/27 05:45:49;;;;;;;21.60;10.57;;;-0.60;99.90;;;;;;5153103;27;20102;-52
2022/02/27 05:48:14;;;;;;;16.75;9.68;;;-0.60;99.90;;;;;;5136375;27;20027;-50
2022/02/27 05:50:40;;;;;;;22.25;10.52;;;-0.60;99.90;;;;;;5136435;27;20395;-52
2022/02/27 05:53:05;;;;;;;21.10;10.02;;;-0.60;99.90;;;;;;5151761;27;20487;-52
2022/02/27 05:55:31;;;;;;;23.02;9.95;;;-0.60;99.90;;;;;;5151578;27;20030;-53
2022/02/27 05:57:56;;;;;;;24.65;11.55;;;-0.70;99.90;;;;;;5120215;27;20047;-50
2022/02/27 06:00:22;;;;;;;25.65;10.95;;;-0.60;99.90;;;;;;5122873;27;20054;-49
2022/02/27 06:02:47;;;;;;;20.52;10.23;;;-0.60;99.90;;;;;;5109968;28;20023;-49
2022/02/27 06:05:13;;;;;;;22.90;10.75;;;-0.60;99.90;;;;;;5110773;28;20030;-50
2022/02/27 06:07:38;;;;;;;18.95;9.48;;;-0.70;99.90;;;;;;5126065;27;20030;-51
2022/02/27 06:10:05;;;;;;;22.27;11.48;;;-0.70;99.90;;;;;;5141413;27;20031;-52
2022/02/27 06:12:30;;;;;;;22.58;10.07;;;-0.70;99.90;;;;;;5122374;27;20506;-51
2022/02/27 06:14:56;;;;;;;22.85;10.73;;;-0.70;99.90;;;;;;5140990;27;20022;-51
2022/02/27 06:17:21;;;;;;;20.63;9.80;;;-0.70;99.90;;;;;;5153158;27;20101;-52
2022/02/27 06:19:47;;;;;;;19.52;9.43;;;-0.70;99.90;;;;;;5142253;27;20141;-52
2022/02/27 06:22:12;;;;;;;18.60;9.38;;;-0.70;99.90;;;;;;5143434;27;20026;-53
2022/02/27 06:24:38;;;;;;;24.10;11.55;;;-0.70;99.90;;;;;;5152645;27;20023;-54
2022/02/27 06:27:03;;;;;;;21.63;10.95;;;-0.70;99.90;;;;;;5152531;27;20025;-53
2022/02/27 06:29:29;;;;;;;20.20;10.60;;;-0.70;99.90;;;;;;5135060;27;20027;-55
2022/02/27 06:31:54;;;;;;;24.80;10.75;;;-0.70;99.90;;;;;;5148970;27;20041;-55
2022/02/27 06:34:20;;;;;;;21.45;11.02;;;-0.70;99.90;;;;;;5152379;27;20037;-53
2022/02/27 06:36:45;;;;;;;25.80;10.20;;;-0.70;99.90;;;;;;5138809;27;20095;-54
2022/02/27 06:39:11;;;;;;;21.65;10.80;;;-0.60;99.90;;;;;;5142108;27;20019;-53
2022/02/27 06:41:36;;;;;;;19.23;10.93;;;-0.60;99.90;;;;;;5129492;27;20028;-53
2022/02/27 06:44:02;;;;;;;24.70;10.93;;;-0.70;99.90;;;;;;5141055;27;20387;-53
2022/02/27 06:46:28;;;;;;;22.17;11.40;;;-0.60;99.90;;;;;;5130979;27;20297;-51
2022/02/27 06:48:54;;;;;;;19.77;11.93;;;-0.60;99.90;;;;;;5127720;27;20547;-53
2022/02/27 06:51:20;;;;;;;22.08;11.60;;;-0.60;99.90;;;;;;5110790;28;20035;-53
2022/02/27 06:53:46;;;;;;;25.48;14.40;;;-0.70;99.90;;;;;;5110192;27;20031;-51
2022/02/27 06:56:11;;;;;;;22.10;10.50;;;-0.60;99.90;;;;;;5110778;28;20028;-57
2022/02/27 06:58:37;;;;;;;25.15;11.68;;;-0.60;99.90;;;;;;5109923;28;20223;-55
2022/02/27 07:01:02;;;;;;;23.45;11.65;;;-0.60;99.90;;;;;;5138042;27;20195;-53
2022/02/27 07:03:28;;;;;;;18.55;10.77;;;-0.60;99.90;;;;;;5118672;27;20394;-52
2022/02/27 07:05:53;;;;;;;26.67;12.55;;;-0.60;99.90;;;;;;5119640;27;20068;-50
2022/02/27 07:08:19;;;;;;;23.00;11.55;;;-0.50;99.90;;;;;;5118716;27;20038;-53
2022/02/27 07:10:44;;;;;;;18.40;11.50;;;-0.40;99.90;;;;;;5117891;27;20026;-48
2022/02/27 07:13:10;;;;;;;24.13;11.98;;;-0.50;99.90;;;;;;5115362;27;20031;-51
2022/02/27 07:15:35;;;;;;;22.80;12.48;;;-0.40;99.90;;;;;;5114498;27;20042;-52
2022/02/27 07:18:02;;;;;;;24.00;11.43;;;-0.30;99.90;;;;;;5119943;27;20054;-51
2022/02/27 07:20:30;;;;;;;27.40;11.93;;;-0.30;99.90;;;;;;5118916;27;20042;-51
2022/02/27 07:22:56;;;;;;;25.02;12.32;;;-0.30;99.90;;;;;;5117897;27;20026;-51
2022/02/27 07:25:21;;;;;;;22.40;11.15;;;-0.30;99.90;;;;;;5120512;27;20020;-53
2022/02/27 07:27:47;;;;;;;24.65;12.95;;;-0.20;99.90;;;;;;5116693;27;20173;-53
2022/02/27 07:30:13;;;;;;;26.85;11.80;;;-0.20;99.90;;;;;;5117685;27;20305;-51
2022/02/27 07:32:38;;;;;;;26.90;11.10;;;-0.20;99.90;;;;;;5120181;27;20031;-53
2022/02/27 07:35:04;;;;;;;24.92;11.60;;;-0.20;99.90;;;;;;5121503;27;20019;-52
2022/02/27 07:37:30;;;;;;;22.58;12.05;;;-0.10;99.90;;;;;;5118024;27;20031;-51
2022/02/27 07:39:55;;;;;;;22.02;12.43;;;-0.10;99.90;;;;;;5113831;27;20372;-52
2022/02/27 07:42:21;;;;;;;19.20;11.63;;;-0.10;99.90;;;;;;5114055;27;20093;-51
2022/02/27 07:44:47;;;;;;;31.25;12.73;;;0.00;99.90;;;;;;5113080;27;20023;-52
2022/02/27 07:47:12;;;;;;;25.05;12.02;;;0.10;99.90;;;;;;5116213;27;20028;-52
2022/02/27 07:49:38;;;;;;;21.48;12.32;;;0.20;99.90;;;;;;5115816;27;20510;-52
2022/02/27 07:52:04;;;;;;;24.05;13.80;;;0.30;99.90;;;;;;5115744;27;20027;-51
2022/02/27 07:54:30;;;;;;;23.75;12.85;;;0.30;99.90;;;;;;5115623;27;20465;-52
2022/02/27 07:56:55;;;;;;;19.58;11.07;;;0.30;99.90;;;;;;5115822;27;20052;-56
2022/02/27 07:59:21;;;;;;;25.40;12.88;;;0.40;99.90;;;;;;5122684;27;20024;-56
2022/02/27 08:01:47;;;;;;;21.60;12.05;;;0.40;99.90;;;;;;5110324;27;20031;-56
2022/02/27 08:04:12;;;;;;;23.35;13.48;;;0.50;99.90;;;;;;5114283;27;20027;-56
2022/02/27 08:06:38;;;;;;;27.92;14.23;;;0.60;99.90;;;;;;5116464;27;20249;-56
2022/02/27 08:09:05;;;;;;;20.73;11.60;;;0.70;99.90;;;;;;5115585;27;20055;-56
2022/02/27 08:11:31;;;;;;;28.98;13.13;;;0.70;99.90;;;;;;5116585;27;20304;-56
2022/02/27 08:13:57;;;;;;;20.80;13.07;;;0.80;99.90;;;;;;5116332;27;20433;-55
2022/02/27 08:16:23;;;;;;;24.02;13.85;;;0.80;99.90;;;;;;5116996;27;20011;-55
2022/02/27 08:18:48;;;;;;;31.63;14.13;;;0.90;99.90;;;;;;5118303;27;20114;-58
2022/02/27 08:21:14;;;;;;;26.65;14.50;;;1.10;99.90;;;;;;5109050;27;20040;-56
2022/02/27 08:23:41;;;;;;;23.70;12.75;;;1.20;99.90;;;;;;5115255;27;20023;-56
2022/02/27 08:26:06;;;;;;;27.77;13.27;;;1.20;99.90;;;;;;5118521;27;20026;-56
2022/02/27 08:28:32;;;;;;;22.67;12.73;;;1.30;99.90;;;;;;5118906;27;20026;-55
2022/02/27 08:30:58;;;;;;;28.08;13.55;;;1.40;99.90;;;;;;5114414;27;20066;-56
2022/02/27 08:33:24;;;;;;;24.73;12.43;;;1.50;99.90;;;;;;5113052;27;20300;-56
2022/02/27 08:35:51;;;;;;;25.45;12.95;;;1.70;99.90;;;;;;5116693;27;20345;-55
2022/02/27 08:38:17;;;;;;;20.02;12.40;;;1.70;99.90;;;;;;5112854;27;20031;-55
2022/02/27 08:40:42;;;;;;;28.27;13.27;;;1.90;99.90;;;;;;5111328;27;20548;-56
2022/02/27 08:43:08;;;;;;;24.48;13.43;;;2.00;99.90;;;;;;5110698;27;20024;-55
2022/02/27 08:45:34;;;;;;;35.10;14.35;;;2.10;99.90;;;;;;5116127;27;20051;-54
2022/02/27 08:47:59;;;;;;;27.98;14.05;;;2.30;99.90;;;;;;5114505;27;20031;-56
2022/02/27 08:50:25;;;;;;;29.40;13.18;;;2.40;99.90;;;;;;5109492;27;20024;-55
2022/02/27 08:52:50;;;;;;;27.75;14.77;;;2.50;99.90;;;;;;5121574;27;20049;-55
2022/02/27 08:55:17;;;;;;;27.58;13.50;;;2.70;99.90;;;;;;5123161;27;20076;-56
2022/02/27 08:57:44;;;;;;;25.70;13.43;;;2.80;99.90;;;;;;5117809;27;20027;-56
2022/02/27 09:00:12;;;;;;;27.13;13.30;;;2.90;99.90;;;;;;5115668;27;20066;-56
2022/02/27 09:02:38;;;;;;;27.25;13.05;;;3.10;99.90;;;;;;5114299;27;20503;-55
2022/02/27 09:05:05;;;;;;;29.38;13.65;;;3.30;99.90;;;;;;5117835;27;20464;-56
2022/02/27 09:07:31;;;;;;;27.25;13.23;;;3.50;99.90;;;;;;5112944;27;20053;-55
2022/02/27 09:09:56;;;;;;;24.40;13.70;;;3.70;99.90;;;;;;5113571;28;20072;-56
2022/02/27 09:12:22;;;;;;;29.38;13.20;;;3.80;99.90;;;;;;5120138;27;20394;-55
2022/02/27 09:14:47;;;;;;;28.67;13.20;;;4.00;99.90;;;;;;5122805;27;20020;-55
2022/02/27 09:17:13;;;;;;;25.80;12.88;;;4.20;99.90;;;;;;5116756;27;20475;-55
2022/02/27 09:19:39;;;;;;;22.20;12.30;;;4.80;99.90;;;;;;5115120;27;20016;-56
2022/02/27 09:22:05;;;;;;;18.83;11.05;;;6.10;99.90;;;;;;5114992;28;20020;-56
2022/02/27 09:24:31;;;;;;;16.20;9.75;;;8.20;99.90;;;;;;5114796;27;20031;-56
2022/02/27 09:26:56;;;;;;;18.33;10.35;;;10.10;99.90;;;;;;5125707;27;20024;-56
2022/02/27 09:29:22;;;;;;;18.88;9.73;;;12.30;99.60;;;;;;5119436;27;20030;-56
2022/02/27 09:31:48;;;;;;;17.02;9.73;;;13.70;91.30;;;;;;5113363;28;20028;-56
2022/02/27 09:34:13;;;;;;;13.95;8.13;;;14.50;85.00;;;;;;5111993;28;20043;-55
2022/02/27 09:36:39;;;;;;;19.13;8.50;;;15.70;80.50;;;;;;5112585;28;20480;-55
2022/02/27 09:39:05;;;;;;;15.13;9.88;;;16.40;72.90;;;;;;5121614;27;20031;-55
2022/02/27 09:41:31;;;;;;;16.08;8.65;;;17.00;66.40;;;;;;5120720;28;20019;-55
2022/02/27 09:44:01;;;;;;;12.77;8.40;;;17.60;64.90;;;;;;5118203;27;20019;-56
2022/02/27 09:46:28;;;;;;;16.27;8.25;;;18.30;63.80;;;;;;5117731;28;20020;-55
2022/02/27 09:48:55;;;;;;;13.00;9.13;;;19.10;59.40;;;;;;5119999;27;20019;-56
2022/02/27 09:51:20;;;;;;;15.55;8.65;;;19.80;57.00;;;;;;5116567;27;20042;-55
2022/02/27 09:53:47;;;;;;;12.77;8.90;;;19.50;56.30;;;;;;5117181;27;20582;-56
2022/02/27 09:56:12;;;;;;;11.90;7.95;;;19.80;56.20;;;;;;5115036;28;20019;-56
2022/02/27 09:58:39;;;;;;;17.02;9.07;;;20.40;55.40;;;;;;5122151;27;20115;-55
2022/02/27 10:01:05;;;;;;;12.93;8.57;;;21.00;52.60;;;;;;5121309;27;20103;-56
2022/02/27 10:03:32;;;;;;;17.65;9.90;;;20.70;52.90;;;;;;5114629;28;20111;-56
2022/02/27 10:06:06;;;;;;;14.90;8.85;;;21.10;51.90;;;;;;5112191;28;20167;-56
2022/02/27 10:08:46;;;;;;;14.63;8.43;;;21.10;51.40;;;;;;5114603;27;20058;-55
2022/02/27 10:11:16;;;;;;;;;;;21.20;52.30;;;;;;5124690;27;20482;-55
2022/02/27 10:13:51;;;;;;;14.55;8.70;;;21.40;51.60;;;;;;5119670;27;19911;-55
2022/02/27 10:16:18;;;;;;;15.65;8.80;;;22.20;50.00;;;;;;5115923;27;20119;-55
2022/02/27 10:18:49;;;;;;;12.50;8.02;;;22.50;50.00;;;;;;5118479;27;20020;-56
2022/02/27 10:21:17;;;;;;;17.10;9.60;;;23.20;48.00;;;;;;5122466;27;20060;-56
2022/02/27 10:23:43;;;;;;;14.32;8.48;;;23.10;47.20;;;;;;5117285;27;20540;-56
2022/02/27 10:26:22;;;;;;;14.45;9.02;;;23.50;47.60;;;;;;5123568;27;20034;-56
2022/02/27 10:29:17;;;;;;;14.63;8.70;;;23.40;45.90;;;;;;5122140;27;20019;-56
2022/02/27 10:31:48;;;;;;;15.82;9.05;;;23.70;46.80;;;;;;5117738;27;20515;-56
2022/02/27 10:34:28;;;;;;;15.32;9.52;;;23.00;47.90;;;;;;5117164;27;20042;-55
2022/02/27 10:37:03;;;;;;;13.95;9.18;;;23.30;45.80;;;;;;5123166;27;20087;-56
2022/02/27 10:39:35;;;;;;;15.68;9.43;;;22.90;47.70;;;;;;5120938;27;20034;-56
2022/02/27 10:42:13;;;;;;;15.63;9.02;;;23.30;46.60;;;;;;5117083;27;20103;-56
2022/02/27 10:44:41;;;;;;;18.73;10.18;;;23.90;44.70;;;;;;5116457;27;20149;-56
2022/02/27 10:47:18;;;;;;;19.45;9.15;;;23.10;46.50;;;;;;5128143;27;20394;-56
2022/02/27 10:49:45;;;;;;;16.95;10.13;;;22.90;46.50;;;;;;5114665;27;20035;-55
2022/02/27 10:52:22;;;;;;;18.38;9.80;;;22.80;46.50;;;;;;5115070;27;20815;-54
2022/02/27 10:54:51;;;;;;;19.70;9.95;;;23.20;46.30;;;;;;5116852;27;20386;-55
2022/02/27 10:57:33;;;;;;;14.60;8.98;;;23.70;44.60;;;;;;5116625;27;20023;-55
2022/02/27 11:00:20;;;;;;;16.92;9.38;;;24.30;43.70;;;;;;5121885;27;20044;-53
2022/02/27 11:02:54;;;;;;;13.35;8.82;;;23.90;43.00;;;;;;5116221;27;20684;-52
2022/02/27 11:05:22;;;;;;;16.23;8.73;;;23.10;44.50;;;;;;5118650;27;20484;-53
2022/02/27 11:07:50;;;;;;;17.52;9.52;;;23.00;44.30;;;;;;5115913;27;20437;-54
2022/02/27 11:10:19;;;;;;;14.43;8.68;;;23.30;45.10;;;;;;5116848;27;20108;-54
2022/02/27 11:12:45;;;;;;;12.52;8.25;;;23.80;42.30;;;;;;5115232;27;20352;-54
2022/02/27 11:15:14;;;;;;;16.00;8.40;;;23.90;42.80;;;;;;5115400;27;20292;-55
2022/02/27 11:17:41;;;;;;;14.63;8.77;;;23.70;43.60;;;;;;5125724;27;20022;-55
2022/02/27 11:20:08;;;;;;;14.27;7.97;;;24.20;43.30;;;;;;5121151;27;20085;-55
2022/02/27 11:22:34;;;;;;;13.00;7.13;;;23.20;43.20;;;;;;5117721;27;20051;-53
2022/02/27 11:25:08;;;;;;;10.52;6.38;;;22.70;40.20;;;;;;5118956;27;20058;-54
2022/02/27 11:27:35;;;;;;;13.23;6.75;;;22.20;40.40;;;;;;5125563;27;20364;-54
2022/02/27 11:30:01;;;;;;;15.40;8.10;;;23.00;40.10;;;;;;5112918;27;20049;-54
2022/02/27 11:32:26;;;;;;;16.77;7.80;;;23.90;41.50;;;;;;5122865;27;20777;-54
2022/02/27 11:34:53;;;;;;;13.05;6.60;;;23.40;42.20;;;;;;5120612;27;20023;-54
2022/02/27 11:37:50;;;;;;;11.05;6.43;;;23.90;39.20;;;;;;5121473;27;20051;-54
2022/02/27 11:40:30;;;;;;;7.32;4.95;;;23.80;38.80;;;;;;5113608;27;20111;-54
2022/02/27 11:42:57;;;;;;;;;;;24.30;38.10;;;;;;5125323;27;20469;-54
2022/02/27 11:45:56;;;;;;;10.05;5.35;;;23.10;36.70;;;;;;5120050;27;19926;-54
2022/02/27 11:48:59;;;;;;;9.75;5.55;;;23.70;36.10;;;;;;5120155;27;20534;-54
2022/02/27 11:51:40;;;;;;;8.82;5.70;;;22.00;37.90;;;;;;5120842;27;20035;-54
2022/02/27 11:54:14;;;;;;;10.23;5.28;;;19.90;41.50;;;;;;5115141;27;20023;-54
2022/02/27 11:56:42;;;;;;;7.53;5.03;;;19.10;39.90;;;;;;5119083;27;20027;-53
2022/02/27 11:59:09;;;;;;;9.98;5.10;;;20.60;40.80;;;;;;5117074;27;20095;-53
2022/02/27 12:01:47;;;;;;;10.18;5.57;;;22.50;38.00;;;;;;5115261;27;20206;-54
2022/02/27 12:04:24;;;;;;;7.82;5.10;;;21.80;35.90;;;;;;5117446;27;20556;-53
2022/02/27 12:07:05;;;;;;;10.52;5.13;;;19.60;39.40;;;;;;5117909;27;20491;-54
2022/02/27 12:09:51;;;;;;;7.50;4.10;;;20.50;38.80;;;;;;5114031;27;20042;-54
2022/02/27 12:12:39;;;;;;;7.82;4.70;;;21.90;37.60;;;;;;5109778;27;20298;-54
2022/02/27 12:15:34;;;;;;;7.45;4.28;;;21.00;37.20;;;;;;5114775;27;20077;-54
2022/02/27 12:18:07;;;;;;;7.90;4.47;;;20.80;38.40;;;;;;5117364;27;20043;-55
2022/02/27 12:20:57;;;;;;;8.55;4.97;;;20.40;38.70;;;;;;5113555;27;20031;-54
2022/02/27 12:23:31;;;;;;;10.40;5.63;;;21.30;38.10;;;;;;5115177;27;20503;-53
2022/02/27 12:25:59;;;;;;;12.48;5.45;;;21.20;37.40;;;;;;5111234;27;20192;-54
2022/02/27 12:28:47;;;;;;;7.47;4.53;;;20.60;38.70;;;;;;5118227;27;20031;-54
2022/02/27 12:31:21;;;;;;;8.13;4.75;;;20.70;39.00;;;;;;5110096;27;20027;-54
2022/02/27 12:33:49;;;;;;;6.00;3.53;;;19.50;38.00;;;;;;5112716;27;20242;-54
2022/02/27 12:36:21;;;;;;;8.55;4.18;;;19.00;39.90;;;;;;5110979;27;20113;-54